Decoded Metar for EGXC (CONINGSBY in ENGLAND) (IATA:QCY) | Meteo·Mobile Aviation Weather
aviador You're here:

EGXC Decoded Metar

CONINGSBY in ENGLAND
Report Time2019-07-15 23:50:00
UTC Time2019-07-16 00:12:08
Flight Rules vfr VFR
Wind110° at 04 kt
W.Decomp.*RWY 07: 3.0 kt HW 2.6 kt RCW
Visibility9999 m
Phenomena:N/A
Clouds:N/A
Expected CloudBase > 800 ft AGL from Temp-Dew spread
CeilingNone
Temp13°C (ISA -2)
Dew Point11°C (88% RH)
AAT11.9°C
QNH1020 hPa
Density Alt-269 ft
Elevation23 ft
Report Wrong Elevation
Raw Report
EGXC 152350Z 11004KT CAVOK 13/11 Q1020 RMK BLU=

Extra information for EGXC:More info

Metar Taf Metar & Taf Last 4 Metars F.Rules Stats Wind Profile Meteogram Temp Stats Airport Information Weather charts Add Link Nearby VenuesMetar ALERT Operation Metar Decoded Social comments